sensor_id;sensor_type;location;lat;lon;timestamp;pressure;altitude;pressure_sealevel;temperature;humidity
4469;BME280;2247;42.666;23.292;2023-04-08T00:01:29;94432.66;;;11.24;45.92
4469;BME280;2247;42.666;23.292;2023-04-08T00:03:56;94438.50;;;11.16;46.24
4469;BME280;2247;42.666;23.292;2023-04-08T00:06:23;94436.13;;;11.15;46.38
4469;BME280;2247;42.666;23.292;2023-04-08T00:08:52;94435.41;;;11.04;46.98
4469;BME280;2247;42.666;23.292;2023-04-08T00:11:20;94434.38;;;11.05;47.18
4469;BME280;2247;42.666;23.292;2023-04-08T00:13:47;94444.38;;;11.03;47.53
4469;BME280;2247;42.666;23.292;2023-04-08T00:16:14;94437.53;;;11.02;47.39
4469;BME280;2247;42.666;23.292;2023-04-08T00:18:41;94435.72;;;10.97;47.50
4469;BME280;2247;42.666;23.292;2023-04-08T00:21:08;94432.81;;;10.94;47.50
4469;BME280;2247;42.666;23.292;2023-04-08T00:23:35;94430.19;;;10.94;47.64
4469;BME280;2247;42.666;23.292;2023-04-08T00:26:02;94429.13;;;10.95;47.64
4469;BME280;2247;42.666;23.292;2023-04-08T00:28:30;94432.53;;;11.00;47.81
4469;BME280;2247;42.666;23.292;2023-04-08T00:30:57;94429.09;;;11.00;48.13
4469;BME280;2247;42.666;23.292;2023-04-08T00:33:24;94434.66;;;10.98;47.87
4469;BME280;2247;42.666;23.292;2023-04-08T00:35:50;94434.06;;;11.12;47.55
4469;BME280;2247;42.666;23.292;2023-04-08T00:38:17;94434.31;;;11.10;48.13
4469;BME280;2247;42.666;23.292;2023-04-08T00:40:45;94432.47;;;11.11;47.44
4469;BME280;2247;42.666;23.292;2023-04-08T00:43:12;94435.13;;;11.11;47.54
4469;BME280;2247;42.666;23.292;2023-04-08T00:45:42;94440.41;;;11.11;47.05
4469;BME280;2247;42.666;23.292;2023-04-08T00:48:09;94433.78;;;11.13;47.29
4469;BME280;2247;42.666;23.292;2023-04-08T00:50:36;94439.59;;;11.10;47.32
4469;BME280;2247;42.666;23.292;2023-04-08T00:53:03;94437.75;;;11.11;46.93
4469;BME280;2247;42.666;23.292;2023-04-08T00:55:29;94438.81;;;11.10;47.03
4469;BME280;2247;42.666;23.292;2023-04-08T00:57:57;94439.34;;;11.06;47.49
4469;BME280;2247;42.666;23.292;2023-04-08T01:00:24;94438.59;;;11.06;47.84
4469;BME280;2247;42.666;23.292;2023-04-08T01:03:04;94445.19;;;11.03;47.48
4469;BME280;2247;42.666;23.292;2023-04-08T01:05:38;94442.31;;;10.95;47.86
4469;BME280;2247;42.666;23.292;2023-04-08T01:08:09;94444.72;;;10.86;47.97
4469;BME280;2247;42.666;23.292;2023-04-08T01:10:39;94443.97;;;10.76;48.01
4469;BME280;2247;42.666;23.292;2023-04-08T01:13:11;94452.25;;;10.39;48.60
4469;BME280;2247;42.666;23.292;2023-04-08T01:15:41;94449.91;;;10.32;49.09
4469;BME280;2247;42.666;23.292;2023-04-08T01:18:11;94450.41;;;10.44;48.97
4469;BME280;2247;42.666;23.292;2023-04-08T01:20:40;94453.31;;;10.43;48.94
4469;BME280;2247;42.666;23.292;2023-04-08T01:23:14;94446.72;;;10.50;48.97
4469;BME280;2247;42.666;23.292;2023-04-08T01:25:47;94454.34;;;10.47;49.12
4469;BME280;2247;42.666;23.292;2023-04-08T01:28:17;94452.81;;;10.31;49.23
4469;BME280;2247;42.666;23.292;2023-04-08T01:30:45;94448.88;;;10.08;49.72
4469;BME280;2247;42.666;23.292;2023-04-08T01:33:15;94449.69;;;9.93;50.03
4469;BME280;2247;42.666;23.292;2023-04-08T01:35:43;94447.84;;;9.88;50.71
4469;BME280;2247;42.666;23.292;2023-04-08T01:38:18;94453.13;;;9.88;50.92
4469;BME280;2247;42.666;23.292;2023-04-08T01:40:48;94448.13;;;9.87;50.74
4469;BME280;2247;42.666;23.292;2023-04-08T01:43:16;94449.69;;;9.83;51.20
4469;BME280;2247;42.666;23.292;2023-04-08T01:45:46;94462.59;;;9.79;51.54
4469;BME280;2247;42.666;23.292;2023-04-08T01:48:13;94431.53;;;9.61;51.40
4469;BME280;2247;42.666;23.292;2023-04-08T01:50:42;94450.47;;;9.78;50.97
4469;BME280;2247;42.666;23.292;2023-04-08T01:53:11;94449.44;;;9.74;50.91
4469;BME280;2247;42.666;23.292;2023-04-08T01:55:39;94452.84;;;9.85;50.86
4469;BME280;2247;42.666;23.292;2023-04-08T01:58:11;94457.31;;;10.05;50.00
4469;BME280;2247;42.666;23.292;2023-04-08T02:00:41;94460.19;;;10.13;50.15
4469;BME280;2247;42.666;23.292;2023-04-08T02:03:10;94460.72;;;10.25;49.69
4469;BME280;2247;42.666;23.292;2023-04-08T02:05:38;94468.34;;;10.37;48.72
4469;BME280;2247;42.666;23.292;2023-04-08T02:08:05;94473.59;;;10.42;48.63
4469;BME280;2247;42.666;23.292;2023-04-08T02:10:32;94480.44;;;10.48;48.46
4469;BME280;2247;42.666;23.292;2023-04-08T02:12:59;94469.34;;;10.61;48.08
4469;BME280;2247;42.666;23.292;2023-04-08T02:15:33;94473.28;;;10.64;47.66
4469;BME280;2247;42.666;23.292;2023-04-08T02:18:06;94467.25;;;10.53;47.98
4469;BME280;2247;42.666;23.292;2023-04-08T02:20:38;94476.97;;;10.63;47.95
4469;BME280;2247;42.666;23.292;2023-04-08T02:23:12;94476.69;;;10.70;47.68
4469;BME280;2247;42.666;23.292;2023-04-08T02:25:44;94473.53;;;10.68;47.72
4469;BME280;2247;42.666;23.292;2023-04-08T02:28:13;94479.31;;;10.70;47.32
4469;BME280;2247;42.666;23.292;2023-04-08T02:30:44;94476.13;;;10.73;47.41
4469;BME280;2247;42.666;23.292;2023-04-08T02:33:17;94473.03;;;10.60;47.61
4469;BME280;2247;42.666;23.292;2023-04-08T02:35:45;94471.19;;;10.56;47.67
4469;BME280;2247;42.666;23.292;2023-04-08T02:38:13;94472.50;;;10.53;48.96
4469;BME280;2247;42.666;23.292;2023-04-08T02:40:40;94476.97;;;10.58;49.17
4469;BME280;2247;42.666;23.292;2023-04-08T02:43:07;94474.88;;;10.55;49.33
4469;BME280;2247;42.666;23.292;2023-04-08T02:45:37;94479.38;;;10.54;49.46
4469;BME280;2247;42.666;23.292;2023-04-08T02:48:07;94470.44;;;10.50;49.90
4469;BME280;2247;42.666;23.292;2023-04-08T02:50:35;94477.00;;;10.53;49.80
4469;BME280;2247;42.666;23.292;2023-04-08T02:53:02;94478.84;;;10.52;49.54
4469;BME280;2247;42.666;23.292;2023-04-08T02:55:30;94473.03;;;10.55;49.56
4469;BME280;2247;42.666;23.292;2023-04-08T02:57:57;94471.47;;;10.49;49.96
4469;BME280;2247;42.666;23.292;2023-04-08T03:00:23;94480.97;;;10.45;49.89
4469;BME280;2247;42.666;23.292;2023-04-08T03:02:51;94476.22;;;10.47;49.88
4469;BME280;2247;42.666;23.292;2023-04-08T03:05:19;94480.44;;;10.48;49.98
4469;BME280;2247;42.666;23.292;2023-04-08T03:07:46;94481.75;;;10.46;50.00
4469;BME280;2247;42.666;23.292;2023-04-08T03:10:13;94478.84;;;10.47;50.02
4469;BME280;2247;42.666;23.292;2023-04-08T03:12:40;94470.72;;;10.44;50.10
4469;BME280;2247;42.666;23.292;2023-04-08T03:15:07;94472.00;;;10.46;50.01
4469;BME280;2247;42.666;23.292;2023-04-08T03:17:34;94475.16;;;10.48;50.14
4469;BME280;2247;42.666;23.292;2023-04-08T03:20:01;94476.75;;;10.49;50.15
4469;BME280;2247;42.666;23.292;2023-04-08T03:22:30;94467.25;;;10.53;49.65
4469;BME280;2247;42.666;23.292;2023-04-08T03:24:59;94473.06;;;10.50;49.90
4469;BME280;2247;42.666;23.292;2023-04-08T03:27:26;94476.19;;;10.52;49.85
4469;BME280;2247;42.666;23.292;2023-04-08T03:29:53;94477.25;;;10.51;49.84
4469;BME280;2247;42.666;23.292;2023-04-08T03:32:22;94479.34;;;10.59;49.66
4469;BME280;2247;42.666;23.292;2023-04-08T03:34:49;94483.59;;;10.50;49.76
4469;BME280;2247;42.666;23.292;2023-04-08T03:37:16;94456.22;;;10.41;49.81
4469;BME280;2247;42.666;23.292;2023-04-08T03:39:44;94474.59;;;10.61;49.72
4469;BME280;2247;42.666;23.292;2023-04-08T03:42:11;94476.22;;;10.57;49.87
4469;BME280;2247;42.666;23.292;2023-04-08T03:44:38;94473.84;;;10.56;49.98
4469;BME280;2247;42.666;23.292;2023-04-08T03:47:05;94475.94;;;10.54;49.83
4469;BME280;2247;42.666;23.292;2023-04-08T03:49:32;94467.78;;;10.50;50.04
4469;BME280;2247;42.666;23.292;2023-04-08T03:51:58;94481.19;;;10.64;49.67
4469;BME280;2247;42.666;23.292;2023-04-08T03:54:26;94460.91;;;10.59;49.57
4469;BME280;2247;42.666;23.292;2023-04-08T03:56:54;94474.06;;;10.59;49.45
4469;BME280;2247;42.666;23.292;2023-04-08T03:59:22;94480.97;;;10.45;49.87
4469;BME280;2247;42.666;23.292;2023-04-08T04:01:49;94468.09;;;10.34;50.25
4469;BME280;2247;42.666;23.292;2023-04-08T04:04:18;94457.81;;;10.32;50.19
4469;BME280;2247;42.666;23.292;2023-04-08T04:06:45;94470.94;;;10.52;50.03
4469;BME280;2247;42.666;23.292;2023-04-08T04:09:13;94471.44;;;10.64;50.02
4469;BME280;2247;42.666;23.292;2023-04-08T04:11:41;94479.91;;;10.56;50.10
4469;BME280;2247;42.666;23.292;2023-04-08T04:14:10;94461.47;;;10.46;50.21
4469;BME280;2247;42.666;23.292;2023-04-08T04:16:37;94471.47;;;10.49;50.06
4469;BME280;2247;42.666;23.292;2023-04-08T04:19:05;94475.63;;;10.65;49.65
4469;BME280;2247;42.666;23.292;2023-04-08T04:21:36;94477.22;;;10.66;49.84
4469;BME280;2247;42.666;23.292;2023-04-08T04:24:07;94488.53;;;10.77;49.87
4469;BME280;2247;42.666;23.292;2023-04-08T04:26:39;94490.09;;;10.78;49.54
4469;BME280;2247;42.666;23.292;2023-04-08T04:29:10;94488.75;;;10.91;49.00
4469;BME280;2247;42.666;23.292;2023-04-08T04:31:36;94492.50;;;10.70;49.24
4469;BME280;2247;42.666;23.292;2023-04-08T04:34:03;94492.53;;;10.64;49.40
4469;BME280;2247;42.666;23.292;2023-04-08T04:36:30;94487.22;;;10.70;49.11
4469;BME280;2247;42.666;23.292;2023-04-08T04:38:57;94492.00;;;10.62;48.64
4469;BME280;2247;42.666;23.292;2023-04-08T04:41:24;94473.06;;;10.40;48.94
4469;BME280;2247;42.666;23.292;2023-04-08T04:43:51;94489.91;;;10.54;49.20
4469;BME280;2247;42.666;23.292;2023-04-08T04:46:20;94485.13;;;10.61;48.04
4469;BME280;2247;42.666;23.292;2023-04-08T04:48:47;94498.84;;;10.53;48.43
4469;BME280;2247;42.666;23.292;2023-04-08T04:51:15;94499.91;;;10.52;48.16
4469;BME280;2247;42.666;23.292;2023-04-08T04:53:42;94491.72;;;10.59;48.11
4469;BME280;2247;42.666;23.292;2023-04-08T04:56:09;94498.28;;;10.66;48.31
4469;BME280;2247;42.666;23.292;2023-04-08T04:58:36;94498.28;;;10.66;47.88
4469;BME280;2247;42.666;23.292;2023-04-08T05:01:03;94500.16;;;10.61;48.32
4469;BME280;2247;42.666;23.292;2023-04-08T05:03:31;94504.34;;;10.67;48.58
4469;BME280;2247;42.666;23.292;2023-04-08T05:05:58;94494.59;;;10.73;48.96
4469;BME280;2247;42.666;23.292;2023-04-08T05:08:26;94492.25;;;10.71;49.70
4469;BME280;2247;42.666;23.292;2023-04-08T05:10:53;94498.00;;;10.73;50.05
4469;BME280;2247;42.666;23.292;2023-04-08T05:13:21;94487.22;;;10.70;49.85
4469;BME280;2247;42.666;23.292;2023-04-08T05:15:48;94476.19;;;10.52;49.87
4469;BME280;2247;42.666;23.292;2023-04-08T05:18:16;94493.81;;;10.67;49.99
4469;BME280;2247;42.666;23.292;2023-04-08T05:20:46;94498.06;;;10.63;49.77
4469;BME280;2247;42.666;23.292;2023-04-08T05:23:14;94491.16;;;10.72;49.91
4469;BME280;2247;42.666;23.292;2023-04-08T05:25:42;94501.44;;;10.74;49.51
4469;BME280;2247;42.666;23.292;2023-04-08T05:28:11;94499.56;;;10.84;49.92
4469;BME280;2247;42.666;23.292;2023-04-08T05:30:38;94499.00;;;10.97;49.63
4469;BME280;2247;42.666;23.292;2023-04-08T05:33:05;94497.66;;;11.00;49.94
4469;BME280;2247;42.666;23.292;2023-04-08T05:35:32;94500.53;;;11.09;49.65
4469;BME280;2247;42.666;23.292;2023-04-08T05:38:00;94498.16;;;11.07;49.52
4469;BME280;2247;42.666;23.292;2023-04-08T05:40:26;94491.31;;;11.06;49.75
4469;BME280;2247;42.666;23.292;2023-04-08T05:42:53;94497.56;;;11.20;49.58
4469;BME280;2247;42.666;23.292;2023-04-08T05:45:20;94493.84;;;11.21;49.00
4469;BME280;2247;42.666;23.292;2023-04-08T05:47:47;94493.09;;;11.16;49.30
4469;BME280;2247;42.666;23.292;2023-04-08T05:50:15;94495.94;;;11.29;48.69
4469;BME280;2247;42.666;23.292;2023-04-08T05:52:42;94490.31;;;11.46;47.80
4469;BME280;2247;42.666;23.292;2023-04-08T05:55:12;94496.88;;;11.49;48.07
4469;BME280;2247;42.666;23.292;2023-04-08T05:57:39;94492.19;;;11.40;48.37
4469;BME280;2247;42.666;23.292;2023-04-08T06:00:08;94482.78;;;11.24;48.70
4469;BME280;2247;42.666;23.292;2023-04-08T06:02:36;94485.19;;;11.16;49.06
4469;BME280;2247;42.666;23.292;2023-04-08T06:05:03;94488.06;;;11.24;49.11
4469;BME280;2247;42.666;23.292;2023-04-08T06:07:31;94475.41;;;11.26;48.95
4469;BME280;2247;42.666;23.292;2023-04-08T06:09:58;94489.03;;;11.38;48.55
4469;BME280;2247;42.666;23.292;2023-04-08T06:12:27;94488.53;;;11.31;48.37
4469;BME280;2247;42.666;23.292;2023-04-08T06:14:54;94488.53;;;11.31;48.96
4469;BME280;2247;42.666;23.292;2023-04-08T06:17:22;94486.34;;;11.43;48.48
4469;BME280;2247;42.666;23.292;2023-04-08T06:19:49;94481.84;;;11.49;48.07
4469;BME280;2247;42.666;23.292;2023-04-08T06:22:16;94483.06;;;11.67;48.01
4469;BME280;2247;42.666;23.292;2023-04-08T06:24:42;94491.38;;;11.84;47.51
4469;BME280;2247;42.666;23.292;2023-04-08T06:27:10;94491.81;;;12.01;47.15
4469;BME280;2247;42.666;23.292;2023-04-08T06:29:38;94482.72;;;12.12;46.72
4469;BME280;2247;42.666;23.292;2023-04-08T06:32:05;94500.53;;;11.97;47.16
4469;BME280;2247;42.666;23.292;2023-04-08T06:34:32;94486.84;;;11.90;47.22
4469;BME280;2247;42.666;23.292;2023-04-08T06:36:59;94495.66;;;11.80;46.92
4469;BME280;2247;42.666;23.292;2023-04-08T06:39:26;94492.19;;;11.84;46.57
4469;BME280;2247;42.666;23.292;2023-04-08T06:41:53;94494.44;;;11.57;46.79
4469;BME280;2247;42.666;23.292;2023-04-08T06:44:20;94492.56;;;11.68;46.99
4469;BME280;2247;42.666;23.292;2023-04-08T06:46:49;94493.47;;;11.43;46.73
4469;BME280;2247;42.666;23.292;2023-04-08T06:49:16;94496.31;;;11.57;47.35
4469;BME280;2247;42.666;23.292;2023-04-08T06:51:43;94496.66;;;11.84;46.97
4469;BME280;2247;42.666;23.292;2023-04-08T06:54:10;94496.75;;;11.74;46.81
4469;BME280;2247;42.666;23.292;2023-04-08T06:56:37;94501.53;;;11.62;46.71
4469;BME280;2247;42.666;23.292;2023-04-08T06:59:04;94489.56;;;11.35;47.30
4469;BME280;2247;42.666;23.292;2023-04-08T07:01:31;94498.31;;;11.31;48.23
4469;BME280;2247;42.666;23.292;2023-04-08T07:03:59;94498.03;;;11.27;48.46
4469;BME280;2247;42.666;23.292;2023-04-08T07:06:27;94499.63;;;11.28;48.19
4469;BME280;2247;42.666;23.292;2023-04-08T07:08:54;94499.72;;;11.08;48.85
4469;BME280;2247;42.666;23.292;2023-04-08T07:11:21;94489.75;;;11.00;48.95
4469;BME280;2247;42.666;23.292;2023-04-08T07:13:48;94500.25;;;11.10;49.20
4469;BME280;2247;42.666;23.292;2023-04-08T07:16:15;94497.09;;;11.13;49.04
4469;BME280;2247;42.666;23.292;2023-04-08T07:18:41;94509.75;;;11.11;49.48
4469;BME280;2247;42.666;23.292;2023-04-08T07:21:10;94509.09;;;11.34;48.97
4469;BME280;2247;42.666;23.292;2023-04-08T07:23:37;94517.34;;;11.23;48.87
4469;BME280;2247;42.666;23.292;2023-04-08T07:26:05;94514.22;;;11.11;49.76
4469;BME280;2247;42.666;23.292;2023-04-08T07:28:32;94509.66;;;11.31;49.57
4469;BME280;2247;42.666;23.292;2023-04-08T07:31:11;94518.25;;;11.52;49.05
4469;BME280;2247;42.666;23.292;2023-04-08T07:33:38;94498.03;;;11.27;49.11
4469;BME280;2247;42.666;23.292;2023-04-08T07:36:05;94515.78;;;11.66;48.76
4469;BME280;2247;42.666;23.292;2023-04-08T07:38:33;94508.03;;;11.84;48.09
4469;BME280;2247;42.666;23.292;2023-04-08T07:41:00;94520.09;;;11.96;48.14
4469;BME280;2247;42.666;23.292;2023-04-08T07:43:27;94508.34;;;11.78;48.35
4469;BME280;2247;42.666;23.292;2023-04-08T07:46:27;94524.91;;;12.22;47.76
4469;BME280;2247;42.666;23.292;2023-04-08T07:49:17;94526.50;;;12.18;47.89
4469;BME280;2247;42.666;23.292;2023-04-08T07:51:44;94530.50;;;12.16;47.76
4469;BME280;2247;42.666;23.292;2023-04-08T07:54:12;94534.38;;;12.29;47.65
4469;BME280;2247;42.666;23.292;2023-04-08T07:56:41;94534.78;;;12.41;47.34
4469;BME280;2247;42.666;23.292;2023-04-08T07:59:09;94536.63;;;12.40;48.24
4469;BME280;2247;42.666;23.292;2023-04-08T08:01:36;94546.97;;;12.37;49.11
4469;BME280;2247;42.666;23.292;2023-04-08T08:04:03;94533.59;;;12.57;48.04
4469;BME280;2247;42.666;23.292;2023-04-08T08:06:29;94544.91;;;12.86;48.76
4469;BME280;2247;42.666;23.292;2023-04-08T08:08:57;94540.84;;;12.94;46.51
4469;BME280;2247;42.666;23.292;2023-04-08T08:11:26;94540.00;;;12.75;46.78
4469;BME280;2247;42.666;23.292;2023-04-08T08:13:53;94539.56;;;12.68;47.09
4469;BME280;2247;42.666;23.292;2023-04-08T08:16:21;94539.94;;;12.56;47.63
4469;BME280;2247;42.666;23.292;2023-04-08T08:18:51;94532.53;;;12.58;47.75
4469;BME280;2247;42.666;23.292;2023-04-08T08:21:21;94532.19;;;12.88;47.21
4469;BME280;2247;42.666;23.292;2023-04-08T08:23:51;94543.81;;;12.92;46.88
4469;BME280;2247;42.666;23.292;2023-04-08T08:26:17;94546.78;;;12.86;47.18
4469;BME280;2247;42.666;23.292;2023-04-08T08:28:46;94527.50;;;12.80;47.40
4469;BME280;2247;42.666;23.292;2023-04-08T08:31:13;94539.63;;;12.86;47.76
4469;BME280;2247;42.666;23.292;2023-04-08T08:33:40;94542.56;;;12.85;47.82
4469;BME280;2247;42.666;23.292;2023-04-08T08:36:07;94541.66;;;12.71;47.92
4469;BME280;2247;42.666;23.292;2023-04-08T08:38:34;94543.97;;;12.77;47.76
4469;BME280;2247;42.666;23.292;2023-04-08T08:41:01;94541.38;;;12.72;48.45
4469;BME280;2247;42.666;23.292;2023-04-08T08:43:29;94546.09;;;12.75;47.87
4469;BME280;2247;42.666;23.292;2023-04-08T08:45:59;94537.94;;;12.72;48.21
4469;BME280;2247;42.666;23.292;2023-04-08T08:48:26;94542.31;;;12.81;47.67
4469;BME280;2247;42.666;23.292;2023-04-08T08:50:53;94544.44;;;12.79;48.29
4469;BME280;2247;42.666;23.292;2023-04-08T08:53:20;94538.59;;;12.82;47.43
4469;BME280;2247;42.666;23.292;2023-04-08T08:55:47;94546.34;;;12.74;47.61
4469;BME280;2247;42.666;23.292;2023-04-08T08:58:14;94540.25;;;12.49;47.84
4469;BME280;2247;42.666;23.292;2023-04-08T09:00:41;94541.97;;;12.64;47.78
4469;BME280;2247;42.666;23.292;2023-04-08T09:03:18;94549.47;;;12.52;48.13
4469;BME280;2247;42.666;23.292;2023-04-08T09:05:53;94546.84;;;12.23;49.13
4469;BME280;2247;42.666;23.292;2023-04-08T09:08:28;94552.59;;;12.25;49.56
4469;BME280;2247;42.666;23.292;2023-04-08T09:11:10;94544.88;;;12.34;49.70
4469;BME280;2247;42.666;23.292;2023-04-08T09:13:37;94545.75;;;12.53;48.80
4469;BME280;2247;42.666;23.292;2023-04-08T09:16:06;94514.16;;;12.43;48.84
4469;BME280;2247;42.666;23.292;2023-04-08T09:18:35;94568.16;;;12.60;48.18
4469;BME280;2247;42.666;23.292;2023-04-08T09:21:03;94541.19;;;12.63;48.63
4469;BME280;2247;42.666;23.292;2023-04-08T09:23:38;94540.63;;;12.67;48.47
4469;BME280;2247;42.666;23.292;2023-04-08T09:26:09;94541.78;;;12.55;49.04
4469;BME280;2247;42.666;23.292;2023-04-08T09:28:36;94541.06;;;12.45;49.62
4469;BME280;2247;42.666;23.292;2023-04-08T09:31:18;94541.50;;;12.57;49.56
4469;BME280;2247;42.666;23.292;2023-04-08T09:33:47;94549.13;;;12.63;48.91
4469;BME280;2247;42.666;23.292;2023-04-08T09:36:14;94537.19;;;12.66;48.87
4469;BME280;2247;42.666;23.292;2023-04-08T09:38:41;94542.09;;;12.78;48.75
4469;BME280;2247;42.666;23.292;2023-04-08T09:41:12;94527.25;;;12.82;48.70
4469;BME280;2247;42.666;23.292;2023-04-08T09:43:42;94525.22;;;12.97;48.43
4469;BME280;2247;42.666;23.292;2023-04-08T09:46:14;94522.69;;;13.11;47.40
4469;BME280;2247;42.666;23.292;2023-04-08T09:48:47;94522.97;;;13.10;47.75
4469;BME280;2247;42.666;23.292;2023-04-08T09:51:16;94507.50;;;12.98;46.31
4469;BME280;2247;42.666;23.292;2023-04-08T09:53:46;94519.34;;;13.00;45.83
4469;BME280;2247;42.666;23.292;2023-04-08T09:56:15;94511.94;;;13.02;46.35
4469;BME280;2247;42.666;23.292;2023-04-08T09:58:50;94517.00;;;13.23;47.50
4469;BME280;2247;42.666;23.292;2023-04-08T10:01:23;94519.59;;;13.28;47.16
4469;BME280;2247;42.666;23.292;2023-04-08T10:03:54;94511.72;;;13.23;47.51
4469;BME280;2247;42.666;23.292;2023-04-08T10:06:27;94522.03;;;13.24;47.82
4469;BME280;2247;42.666;23.292;2023-04-08T10:08:55;94521.06;;;13.15;47.52
4469;BME280;2247;42.666;23.292;2023-04-08T10:11:24;94512.44;;;13.05;48.08
4469;BME280;2247;42.666;23.292;2023-04-08T10:13:50;94506.09;;;13.06;47.73
4469;BME280;2247;42.666;23.292;2023-04-08T10:16:21;94508.13;;;12.90;48.17
4469;BME280;2247;42.666;23.292;2023-04-08T10:18:53;94513.81;;;12.78;48.68
4469;BME280;2247;42.666;23.292;2023-04-08T10:21:37;94504.97;;;12.64;47.92
4469;BME280;2247;42.666;23.292;2023-04-08T10:24:08;94517.00;;;12.75;48.06
4469;BME280;2247;42.666;23.292;2023-04-08T10:26:36;94507.13;;;12.86;48.40
4469;BME280;2247;42.666;23.292;2023-04-08T10:29:30;94509.34;;;12.97;48.34
4469;BME280;2247;42.666;23.292;2023-04-08T10:31:58;94505.91;;;12.97;47.88
4469;BME280;2247;42.666;23.292;2023-04-08T10:34:27;94504.72;;;13.08;47.88
4469;BME280;2247;42.666;23.292;2023-04-08T10:36:56;94477.03;;;13.00;47.91
4469;BME280;2247;42.666;23.292;2023-04-08T10:39:26;94493.13;;;13.28;47.32
4469;BME280;2247;42.666;23.292;2023-04-08T10:41:53;94482.22;;;13.11;47.49
4469;BME280;2247;42.666;23.292;2023-04-08T10:44:22;94472.31;;;12.97;47.44
4469;BME280;2247;42.666;23.292;2023-04-08T10:46:52;94494.44;;;13.07;48.12
4469;BME280;2247;42.666;23.292;2023-04-08T10:49:18;94485.59;;;13.16;47.79
4469;BME280;2247;42.666;23.292;2023-04-08T10:51:48;94489.75;;;13.22;47.94
4469;BME280;2247;42.666;23.292;2023-04-08T10:54:16;94484.97;;;13.24;47.81
4469;BME280;2247;42.666;23.292;2023-04-08T10:56:45;94480.28;;;13.40;47.89
4469;BME280;2247;42.666;23.292;2023-04-08T10:59:14;94482.50;;;13.33;47.22
4469;BME280;2247;42.666;23.292;2023-04-08T11:01:43;94467.00;;;13.21;46.74
4469;BME280;2247;42.666;23.292;2023-04-08T11:04:11;94455.16;;;12.95;47.43
4469;BME280;2247;42.666;23.292;2023-04-08T11:06:41;94474.28;;;13.11;47.35
4469;BME280;2247;42.666;23.292;2023-04-08T11:09:09;94440.59;;;12.97;47.06
4469;BME280;2247;42.666;23.292;2023-04-08T11:11:36;94463.53;;;13.02;47.20
4469;BME280;2247;42.666;23.292;2023-04-08T11:14:03;94462.38;;;13.08;47.42
4469;BME280;2247;42.666;23.292;2023-04-08T11:16:31;94477.09;;;12.95;47.21
4469;BME280;2247;42.666;23.292;2023-04-08T11:19:02;94442.78;;;12.90;47.73
4469;BME280;2247;42.666;23.292;2023-04-08T11:21:29;94470.41;;;13.03;46.83
4469;BME280;2247;42.666;23.292;2023-04-08T11:23:57;94463.72;;;12.87;46.56
4469;BME280;2247;42.666;23.292;2023-04-08T11:26:25;94449.66;;;12.91;47.16
4469;BME280;2247;42.666;23.292;2023-04-08T11:28:53;94453.38;;;12.90;47.09
4469;BME280;2247;42.666;23.292;2023-04-08T11:31:21;94429.28;;;12.92;47.82
4469;BME280;2247;42.666;23.292;2023-04-08T11:33:53;94434.94;;;13.04;46.15
4469;BME280;2247;42.666;23.292;2023-04-08T11:36:21;94426.50;;;13.02;46.27
4469;BME280;2247;42.666;23.292;2023-04-08T11:38:48;94442.88;;;13.04;46.10
4469;BME280;2247;42.666;23.292;2023-04-08T11:41:17;94428.44;;;12.96;46.75
4469;BME280;2247;42.666;23.292;2023-04-08T11:43:55;94436.44;;;12.91;45.51
4469;BME280;2247;42.666;23.292;2023-04-08T11:46:23;94425.13;;;12.86;44.91
4469;BME280;2247;42.666;23.292;2023-04-08T11:49:00;94427.00;;;12.85;44.67
4469;BME280;2247;42.666;23.292;2023-04-08T11:51:28;94417.28;;;12.99;44.88
4469;BME280;2247;42.666;23.292;2023-04-08T11:53:55;94427.28;;;13.02;44.91
4469;BME280;2247;42.666;23.292;2023-04-08T11:56:23;94416.19;;;13.00;45.45
4469;BME280;2247;42.666;23.292;2023-04-08T11:58:51;94420.69;;;13.00;44.95
4469;BME280;2247;42.666;23.292;2023-04-08T12:01:19;94435.84;;;12.94;44.96
4469;BME280;2247;42.666;23.292;2023-04-08T12:03:54;94404.97;;;12.90;44.86
4469;BME280;2247;42.666;23.292;2023-04-08T12:06:21;94408.91;;;12.92;45.27
4469;BME280;2247;42.666;23.292;2023-04-08T12:08:48;94412.91;;;12.90;45.26
4469;BME280;2247;42.666;23.292;2023-04-08T12:11:16;94413.88;;;12.75;46.21
4469;BME280;2247;42.666;23.292;2023-04-08T12:13:42;94400.66;;;12.75;46.40
4469;BME280;2247;42.666;23.292;2023-04-08T12:16:11;94393.25;;;12.77;46.43
4469;BME280;2247;42.666;23.292;2023-04-08T12:18:38;94401.16;;;12.77;45.84
4469;BME280;2247;42.666;23.292;2023-04-08T12:21:05;94394.38;;;12.71;45.67
4469;BME280;2247;42.666;23.292;2023-04-08T12:23:32;94377.50;;;12.67;46.22
4469;BME280;2247;42.666;23.292;2023-04-08T12:25:59;94393.59;;;12.89;46.56
4469;BME280;2247;42.666;23.292;2023-04-08T12:28:26;94382.66;;;12.96;46.08
4469;BME280;2247;42.666;23.292;2023-04-08T12:30:53;94387.53;;;13.08;45.50
4469;BME280;2247;42.666;23.292;2023-04-08T12:33:22;94382.13;;;12.99;46.55
4469;BME280;2247;42.666;23.292;2023-04-08T12:35:49;94396.06;;;13.05;45.50
4469;BME280;2247;42.666;23.292;2023-04-08T12:38:16;94377.09;;;12.97;46.28
4469;BME280;2247;42.666;23.292;2023-04-08T12:40:43;94380.94;;;12.86;46.63
4469;BME280;2247;42.666;23.292;2023-04-08T12:43:11;94373.66;;;12.78;46.39
4469;BME280;2247;42.666;23.292;2023-04-08T12:45:38;94369.84;;;12.66;45.35
4469;BME280;2247;42.666;23.292;2023-04-08T12:48:06;94377.00;;;12.65;45.97
4469;BME280;2247;42.666;23.292;2023-04-08T12:50:34;94378.06;;;12.64;46.10
4469;BME280;2247;42.666;23.292;2023-04-08T12:53:01;94376.75;;;12.85;45.78
4469;BME280;2247;42.666;23.292;2023-04-08T12:55:28;94397.94;;;12.80;45.92
4469;BME280;2247;42.666;23.292;2023-04-08T12:57:55;94395.97;;;12.72;46.36
4469;BME280;2247;42.666;23.292;2023-04-08T13:00:22;94420.91;;;12.85;45.89
4469;BME280;2247;42.666;23.292;2023-04-08T13:02:51;94418.63;;;12.78;46.34
4469;BME280;2247;42.666;23.292;2023-04-08T13:05:22;94410.44;;;12.75;46.52
4469;BME280;2247;42.666;23.292;2023-04-08T13:07:51;94404.19;;;12.89;46.10
4469;BME280;2247;42.666;23.292;2023-04-08T13:10:19;94396.44;;;13.17;45.77
4469;BME280;2247;42.666;23.292;2023-04-08T13:12:48;94395.72;;;13.30;45.00
4469;BME280;2247;42.666;23.292;2023-04-08T13:15:29;94385.84;;;13.54;44.92
4469;BME280;2247;42.666;23.292;2023-04-08T13:18:00;94387.81;;;13.62;46.16
4469;BME280;2247;42.666;23.292;2023-04-08T13:20:29;94387.41;;;13.55;46.83